createdAt,value
2023-05-16T00:00:43.706Z,1.74
2023-05-16T00:02:05.774Z,2.04
2023-05-16T00:03:29.700Z,2.12
2023-05-16T00:04:50.917Z,2.49
2023-05-16T00:06:13.070Z,1.99
2023-05-16T00:07:34.526Z,2.19
2023-05-16T00:08:56.439Z,2.58
2023-05-16T00:10:19.695Z,3.19
2023-05-16T00:11:42.000Z,4.43
2023-05-16T00:13:03.666Z,6.54
2023-05-16T00:14:25.891Z,4.69
2023-05-16T00:15:48.357Z,5.84
2023-05-16T00:17:09.942Z,5.12
2023-05-16T00:18:31.551Z,3.37
2023-05-16T00:19:53.403Z,4.68
2023-05-16T00:21:15.310Z,6.22
2023-05-16T00:22:37.611Z,4.52
2023-05-16T00:23:59.670Z,2.78
2023-05-16T00:25:22.907Z,2.87
2023-05-16T00:26:44.564Z,1.99
2023-05-16T00:28:07.173Z,2.06
2023-05-16T00:29:30.720Z,1.80
2023-05-16T00:30:51.843Z,1.82
2023-05-16T00:32:13.672Z,1.93
2023-05-16T00:33:36.613Z,1.52
2023-05-16T00:34:57.832Z,1.73
2023-05-16T00:36:20.985Z,1.78
2023-05-16T00:37:42.883Z,2.16
2023-05-16T00:39:05.251Z,2.33
2023-05-16T00:40:26.508Z,2.26
2023-05-16T00:41:48.742Z,1.74
2023-05-16T00:43:10.983Z,1.84
2023-05-16T00:44:33.173Z,1.83
2023-05-16T00:45:55.234Z,1.66
2023-05-16T00:47:17.243Z,1.34
2023-05-16T00:48:40.446Z,2.03
2023-05-16T00:50:02.443Z,2.09
2023-05-16T00:51:24.546Z,1.80
2023-05-16T00:52:46.074Z,2.09
2023-05-16T00:54:07.399Z,1.46
2023-05-16T00:55:29.725Z,1.73
2023-05-16T00:58:14.071Z,2.01
2023-05-16T00:59:35.991Z,1.66
2023-05-16T01:00:57.821Z,1.49
2023-05-16T01:02:21.658Z,2.24
2023-05-16T01:03:44.160Z,1.91
2023-05-16T01:05:08.005Z,2.27
2023-05-16T01:06:29.215Z,4.61
2023-05-16T01:07:50.634Z,4.68
2023-05-16T01:09:12.103Z,2.85
2023-05-16T01:11:58.034Z,2.81
2023-05-16T01:13:26.239Z,3.48
2023-05-16T01:14:53.453Z,2.07
2023-05-16T01:17:47.497Z,2.18
2023-05-16T01:19:16.851Z,2.86
2023-05-16T01:22:04.993Z,1.91
2023-05-16T01:23:33.638Z,1.78
2023-05-16T01:25:15.515Z,1.75
2023-05-16T01:26:36.916Z,1.92
2023-05-16T01:27:58.966Z,1.95
2023-05-16T01:29:22.248Z,1.84
2023-05-16T01:30:44.462Z,1.67
2023-05-16T01:32:07.201Z,1.61
2023-05-16T01:33:28.908Z,2.15
2023-05-16T01:34:50.984Z,1.59
2023-05-16T01:36:39.349Z,3.42
2023-05-16T01:38:26.450Z,2.63
2023-05-16T01:40:08.118Z,1.84
2023-05-16T01:42:04.376Z,2.13
2023-05-16T01:44:50.730Z,1.25
2023-05-16T01:46:14.835Z,1.61
2023-05-16T01:47:36.432Z,2.06
2023-05-16T01:49:07.736Z,2.50
2023-05-16T01:50:29.453Z,3.38
2023-05-16T01:51:56.454Z,3.08
2023-05-16T01:53:23.218Z,3.44
2023-05-16T01:54:45.701Z,3.78
2023-05-16T01:56:10.576Z,3.39
2023-05-16T01:57:33.010Z,3.18
2023-05-16T01:58:54.702Z,2.91
2023-05-16T02:00:16.635Z,2.63
2023-05-16T02:01:38.817Z,2.54
2023-05-16T02:03:01.075Z,1.71
2023-05-16T02:04:22.927Z,1.92
2023-05-16T02:05:44.240Z,2.11
2023-05-16T02:07:06.289Z,1.86
2023-05-16T02:08:28.625Z,3.26
2023-05-16T02:09:50.737Z,2.62
2023-05-16T02:11:12.210Z,3.72
2023-05-16T02:12:34.151Z,2.34
2023-05-16T02:13:55.652Z,2.45
2023-05-16T02:15:17.988Z,2.28
2023-05-16T02:16:39.543Z,2.01
2023-05-16T02:18:01.676Z,2.21
2023-05-16T02:19:23.509Z,2.08
2023-05-16T02:20:45.422Z,2.26
2023-05-16T02:22:08.610Z,3.88
2023-05-16T02:23:30.327Z,2.81
2023-05-16T02:24:51.604Z,1.78
2023-05-16T02:26:14.218Z,2.24
2023-05-16T02:27:36.155Z,2.81
2023-05-16T02:28:58.126Z,2.10
2023-05-16T02:30:19.609Z,1.76
2023-05-16T02:31:41.417Z,2.50
2023-05-16T02:33:03.645Z,2.24
2023-05-16T02:34:25.454Z,1.88
2023-05-16T02:35:48.323Z,1.93
2023-05-16T02:38:33.415Z,1.69
2023-05-16T02:39:55.471Z,1.94
2023-05-16T02:41:17.136Z,2.21
2023-05-16T02:42:38.619Z,1.95
2023-05-16T02:44:00.682Z,2.46
2023-05-16T02:45:23.058Z,1.98
2023-05-16T02:46:45.166Z,1.61
2023-05-16T02:48:07.780Z,1.79
2023-05-16T02:49:29.514Z,1.71
2023-05-16T02:50:50.731Z,1.75
2023-05-16T02:52:12.379Z,1.94
2023-05-16T02:53:33.551Z,1.99
2023-05-16T02:55:09.794Z,1.79
2023-05-16T02:56:19.655Z,1.91
2023-05-16T02:57:41.224Z,1.80
2023-05-16T02:59:03.242Z,2.33
2023-05-16T03:00:26.559Z,2.78
2023-05-16T03:01:48.676Z,2.14
2023-05-16T03:03:10.501Z,1.99
2023-05-16T03:04:32.335Z,2.28
2023-05-16T03:05:54.363Z,2.43
2023-05-16T03:07:17.054Z,2.39
2023-05-16T03:08:40.108Z,2.62
2023-05-16T03:10:02.068Z,2.40
2023-05-16T03:11:24.460Z,2.57
2023-05-16T03:12:47.121Z,2.34
2023-05-16T03:14:10.225Z,2.26
2023-05-16T03:16:53.811Z,2.43
2023-05-16T03:18:15.757Z,2.42
2023-05-16T03:19:37.813Z,2.64
2023-05-16T03:20:59.366Z,1.92
2023-05-16T03:22:22.546Z,2.71
2023-05-16T03:23:45.876Z,2.65
2023-05-16T03:25:08.746Z,2.79
2023-05-16T03:26:31.442Z,2.58
2023-05-16T03:27:52.996Z,2.52
2023-05-16T03:29:16.824Z,2.28
2023-05-16T03:30:38.912Z,2.48
2023-05-16T03:32:00.603Z,2.72
2023-05-16T03:33:24.035Z,2.32
2023-05-16T03:34:47.406Z,2.56
2023-05-16T03:36:10.175Z,2.50
2023-05-16T03:37:33.701Z,2.39
2023-05-16T03:38:56.564Z,2.28
2023-05-16T03:40:18.330Z,2.30
2023-05-16T03:41:40.463Z,2.57
2023-05-16T03:43:02.449Z,2.74
2023-05-16T03:44:24.647Z,2.41
2023-05-16T03:45:46.037Z,2.38
2023-05-16T03:47:07.736Z,2.19
2023-05-16T03:48:30.011Z,2.33
2023-05-16T03:49:51.965Z,2.18
2023-05-16T03:51:14.062Z,2.37
2023-05-16T03:52:36.145Z,3.58
2023-05-16T03:53:59.004Z,1.94
2023-05-16T03:55:22.942Z,2.46
2023-05-16T03:56:45.138Z,2.21
2023-05-16T03:58:08.580Z,1.68
2023-05-16T04:02:04.543Z,2.22
2023-05-16T04:03:26.916Z,2.45
2023-05-16T04:04:49.684Z,2.68
2023-05-16T04:06:13.741Z,2.23
2023-05-16T04:07:36.284Z,2.25
2023-05-16T04:08:59.017Z,2.58
2023-05-16T04:10:21.133Z,3.83
2023-05-16T04:11:44.239Z,2.68
2023-05-16T04:13:06.370Z,2.72
2023-05-16T04:14:28.083Z,2.61
2023-05-16T04:15:50.581Z,4.92
2023-05-16T04:17:12.142Z,2.61
2023-05-16T04:18:34.258Z,3.83
2023-05-16T04:19:58.218Z,4.10
2023-05-16T04:21:19.721Z,2.92
2023-05-16T04:22:43.325Z,2.74
2023-05-16T04:24:06.903Z,6.35
2023-05-16T04:25:28.440Z,4.67
2023-05-16T04:26:50.561Z,3.38
2023-05-16T04:28:13.770Z,2.59
2023-05-16T04:29:36.068Z,2.98
2023-05-16T04:30:59.345Z,2.92
2023-05-16T04:32:20.766Z,3.42
2023-05-16T04:33:42.498Z,3.75
2023-05-16T04:35:11.180Z,7.22
2023-05-16T04:36:33.251Z,10.96
2023-05-16T04:37:55.954Z,12.01
2023-05-16T04:39:17.475Z,5.27
2023-05-16T04:40:40.480Z,3.49
2023-05-16T04:42:03.033Z,3.37
2023-05-16T04:43:25.148Z,3.24
2023-05-16T04:44:47.079Z,2.56
2023-05-16T04:46:09.094Z,3.22
2023-05-16T04:47:31.442Z,3.17
2023-05-16T04:48:53.124Z,3.27
2023-05-16T04:50:15.493Z,3.06
2023-05-16T04:51:37.303Z,3.91
2023-05-16T04:52:59.097Z,4.99
2023-05-16T04:54:20.674Z,3.06
2023-05-16T04:55:43.038Z,3.28
2023-05-16T04:57:04.702Z,3.37
2023-05-16T04:58:26.394Z,3.01
2023-05-16T04:59:48.708Z,3.42
2023-05-16T05:01:10.472Z,2.71
2023-05-16T05:02:32.457Z,3.18
2023-05-16T05:03:55.898Z,2.92
2023-05-16T05:05:19.324Z,2.84
2023-05-16T05:06:42.822Z,3.14
2023-05-16T05:08:06.016Z,2.93
2023-05-16T05:09:27.783Z,2.99
2023-05-16T05:10:50.134Z,3.14
2023-05-16T05:12:11.628Z,2.76
2023-05-16T05:13:34.066Z,3.37
2023-05-16T05:14:55.406Z,3.84
2023-05-16T05:16:18.064Z,3.29
2023-05-16T05:17:41.526Z,2.41
2023-05-16T05:19:03.457Z,3.38
2023-05-16T05:20:25.000Z,2.75
2023-05-16T05:21:47.236Z,3.06
2023-05-16T05:23:08.947Z,3.23
2023-05-16T05:24:30.866Z,3.10
2023-05-16T05:25:53.145Z,2.95
2023-05-16T05:27:15.675Z,2.98
2023-05-16T05:28:38.767Z,2.61
2023-05-16T05:30:02.615Z,2.76
2023-05-16T05:31:24.278Z,3.17
2023-05-16T05:32:45.810Z,3.01
2023-05-16T05:34:08.357Z,3.08
2023-05-16T05:35:30.710Z,3.17
2023-05-16T05:36:52.778Z,2.84
2023-05-16T05:38:14.187Z,2.88
2023-05-16T05:39:36.071Z,3.05
2023-05-16T05:40:58.704Z,3.28
2023-05-16T05:42:20.922Z,2.98
2023-05-16T05:43:42.821Z,3.08
2023-05-16T05:45:09.457Z,2.67
2023-05-16T05:46:32.669Z,2.87
2023-05-16T05:47:55.338Z,2.76
2023-05-16T05:49:20.202Z,3.09
2023-05-16T05:50:43.067Z,2.88
2023-05-16T05:52:06.325Z,3.26
2023-05-16T05:53:28.446Z,2.92
2023-05-16T05:54:50.670Z,3.05
2023-05-16T05:56:12.673Z,3.64
2023-05-16T05:57:34.443Z,3.50
2023-05-16T05:58:56.477Z,3.14
2023-05-16T06:01:42.821Z,3.28
2023-05-16T06:03:05.231Z,2.57
2023-05-16T06:04:30.394Z,2.76
2023-05-16T06:05:53.789Z,2.93
2023-05-16T06:07:16.211Z,2.69
2023-05-16T06:08:38.527Z,2.21
2023-05-16T06:10:03.038Z,2.37
2023-05-16T06:11:26.813Z,2.11
2023-05-16T06:12:49.344Z,1.91
2023-05-16T06:14:12.087Z,2.56
2023-05-16T06:16:56.666Z,2.00
2023-05-16T06:18:18.281Z,1.92
2023-05-16T06:19:40.615Z,1.88
2023-05-16T06:21:06.177Z,1.99
2023-05-16T06:22:28.471Z,2.09
2023-05-16T06:23:52.058Z,2.05
2023-05-16T06:25:14.721Z,2.02
2023-05-16T06:26:36.973Z,1.99
2023-05-16T06:27:58.857Z,1.88
2023-05-16T06:29:21.488Z,1.46
2023-05-16T06:30:43.523Z,2.20
2023-05-16T06:32:07.277Z,2.16
2023-05-16T06:33:29.551Z,2.39
2023-05-16T06:34:51.334Z,2.32
2023-05-16T06:36:13.693Z,2.20
2023-05-16T06:37:35.393Z,2.47
2023-05-16T06:38:56.391Z,2.34
2023-05-16T06:40:18.638Z,2.22
2023-05-16T06:41:40.260Z,2.09
2023-05-16T06:43:02.707Z,2.12
2023-05-16T06:44:24.739Z,1.79
2023-05-16T06:45:48.260Z,2.33
2023-05-16T06:47:10.571Z,2.01
2023-05-16T06:48:33.194Z,1.90
2023-05-16T06:49:55.622Z,1.84
2023-05-16T06:51:17.629Z,1.88
2023-05-16T06:52:40.256Z,2.49
2023-05-16T06:54:04.233Z,2.40
2023-05-16T06:55:26.594Z,2.13
2023-05-16T06:56:48.839Z,2.23
2023-05-16T06:58:12.281Z,2.37
2023-05-16T06:59:35.084Z,2.12
2023-05-16T07:02:19.275Z,1.61
2023-05-16T07:03:40.765Z,1.89
2023-05-16T07:05:03.311Z,2.25
2023-05-16T07:06:25.414Z,1.96
2023-05-16T07:07:47.666Z,2.32
2023-05-16T07:09:12.326Z,2.75
2023-05-16T07:10:36.027Z,2.56
2023-05-16T07:11:58.887Z,1.32
2023-05-16T07:13:21.292Z,1.27
2023-05-16T07:14:44.615Z,1.64
2023-05-16T07:16:06.717Z,1.54
2023-05-16T07:17:32.399Z,1.56
2023-05-16T07:18:56.405Z,1.68
2023-05-16T07:21:42.966Z,1.73
2023-05-16T07:23:04.142Z,1.73
2023-05-16T07:24:25.607Z,1.72
2023-05-16T07:25:48.462Z,2.04
2023-05-16T07:27:11.821Z,2.27
2023-05-16T07:28:33.437Z,2.50
2023-05-16T07:29:56.006Z,1.98
2023-05-16T07:31:17.587Z,2.72
2023-05-16T07:32:40.515Z,2.15
2023-05-16T07:34:02.147Z,3.19
2023-05-16T07:35:24.317Z,2.62
2023-05-16T07:36:46.868Z,2.32
2023-05-16T07:38:08.307Z,2.23
2023-05-16T07:39:31.595Z,1.56
2023-05-16T07:40:59.028Z,3.19
2023-05-16T07:42:21.688Z,2.84
2023-05-16T07:43:43.787Z,2.23
2023-05-16T07:45:09.222Z,2.24
2023-05-16T07:46:33.352Z,2.86
2023-05-16T07:47:55.427Z,1.86
2023-05-16T07:49:18.112Z,1.81
2023-05-16T07:50:41.322Z,2.15
2023-05-16T07:52:04.036Z,3.85
2023-05-16T07:53:27.067Z,4.24
2023-05-16T07:54:49.576Z,2.49
2023-05-16T07:56:13.525Z,2.14
2023-05-16T07:57:38.287Z,3.61
2023-05-16T07:59:01.614Z,3.29
2023-05-16T08:00:23.877Z,2.57
2023-05-16T08:01:49.188Z,2.03
2023-05-16T08:03:11.692Z,2.07
2023-05-16T08:04:33.196Z,1.64
2023-05-16T08:07:13.731Z,1.98
2023-05-16T08:08:35.685Z,2.03
2023-05-16T08:09:58.616Z,2.08
2023-05-16T08:11:20.805Z,2.75
2023-05-16T08:12:43.045Z,1.66
2023-05-16T08:14:05.345Z,1.79
2023-05-16T08:15:27.485Z,4.81
2023-05-16T08:16:50.243Z,3.48
2023-05-16T08:18:13.646Z,2.39
2023-05-16T08:19:36.509Z,1.46
2023-05-16T08:22:20.398Z,2.70
2023-05-16T08:23:42.943Z,1.91
2023-05-16T08:25:08.331Z,2.71
2023-05-16T08:26:33.117Z,7.07
2023-05-16T08:27:56.500Z,17.03
2023-05-16T08:29:19.280Z,22.33
2023-05-16T08:30:42.769Z,19.52
2023-05-16T08:32:05.967Z,5.66
2023-05-16T08:33:28.095Z,5.36
2023-05-16T08:34:51.815Z,3.24
2023-05-16T08:36:13.904Z,2.28
2023-05-16T08:38:49.776Z,2.14
2023-05-16T08:40:15.661Z,1.56
2023-05-16T08:41:38.083Z,1.54
2023-05-16T08:43:03.388Z,1.56
2023-05-16T08:44:25.813Z,1.79
2023-05-16T08:45:47.848Z,4.66
2023-05-16T08:47:13.436Z,2.08
2023-05-16T08:48:36.928Z,1.77
2023-05-16T08:49:59.635Z,2.85
2023-05-16T08:51:23.082Z,3.24
2023-05-16T08:52:44.888Z,2.01
2023-05-16T08:54:09.473Z,2.14
2023-05-16T08:55:31.851Z,1.76
2023-05-16T08:56:54.211Z,1.76
2023-05-16T08:58:17.551Z,4.15
2023-05-16T08:59:41.258Z,3.31
2023-05-16T09:02:18.447Z,2.30
2023-05-16T09:03:40.462Z,6.88
2023-05-16T09:05:03.646Z,8.29
2023-05-16T09:06:25.873Z,4.20
2023-05-16T09:07:47.160Z,3.07
2023-05-16T09:09:09.022Z,2.29
2023-05-16T09:10:30.905Z,9.15
2023-05-16T09:11:53.171Z,22.59
2023-05-16T09:14:41.145Z,2.41
2023-05-16T09:16:11.522Z,1.48
2023-05-16T09:19:14.826Z,1.59
2023-05-16T09:20:38.026Z,2.08
2023-05-16T09:23:17.211Z,1.87
2023-05-16T09:36:22.291Z,1.73
2023-05-16T09:38:58.138Z,1.62
2023-05-16T09:40:25.543Z,1.92
2023-05-16T09:41:49.088Z,1.97
2023-05-16T09:44:21.592Z,2.88
2023-05-16T09:47:08.504Z,2.51
2023-05-16T09:48:30.958Z,1.56
2023-05-16T09:51:11.432Z,1.47
2023-05-16T09:52:33.286Z,1.70
2023-05-16T09:53:55.323Z,1.82
2023-05-16T09:55:18.132Z,1.57
2023-05-16T09:56:50.261Z,1.51
2023-05-16T09:58:12.203Z,1.62
2023-05-16T09:59:38.209Z,1.74
2023-05-16T10:01:03.586Z,1.41
2023-05-16T10:02:25.845Z,2.51
2023-05-16T10:05:10.591Z,2.27
2023-05-16T10:06:33.269Z,1.30
2023-05-16T10:09:12.760Z,1.48
2023-05-16T10:10:35.892Z,1.45
2023-05-16T10:11:58.039Z,1.53
2023-05-16T10:13:21.416Z,1.78
2023-05-16T10:14:43.577Z,1.68
2023-05-16T10:17:19.827Z,1.64
2023-05-16T10:18:42.169Z,1.50
2023-05-16T10:20:06.488Z,1.37
2023-05-16T10:21:28.794Z,1.97
2023-05-16T10:22:51.177Z,2.98
2023-05-16T10:24:12.283Z,2.09
2023-05-16T10:26:51.912Z,2.38
2023-05-16T10:28:15.829Z,1.99
2023-05-16T10:29:54.017Z,1.76
2023-05-16T10:31:07.746Z,1.62
2023-05-16T10:32:29.534Z,1.61
2023-05-16T10:33:52.462Z,1.49
2023-05-16T10:37:50.396Z,1.61
2023-05-16T10:39:15.596Z,1.84
2023-05-16T10:40:38.466Z,5.12
2023-05-16T10:42:01.819Z,1.78
2023-05-16T10:43:25.036Z,1.67
2023-05-16T10:45:01.868Z,2.78
2023-05-16T10:46:14.221Z,3.76
2023-05-16T10:47:36.974Z,1.40
2023-05-16T10:48:59.372Z,1.63
2023-05-16T10:50:41.236Z,1.59
2023-05-16T10:52:09.134Z,1.49
2023-05-16T10:53:34.645Z,2.13
2023-05-16T10:54:57.921Z,1.38
2023-05-16T10:57:40.205Z,1.54
2023-05-16T10:59:02.018Z,1.71
2023-05-16T11:00:26.039Z,1.44
2023-05-16T11:03:06.703Z,1.62
2023-05-16T11:04:48.563Z,1.47
2023-05-16T11:06:10.112Z,1.41
2023-05-16T11:09:05.942Z,1.27
2023-05-16T11:10:32.693Z,1.52
2023-05-16T11:11:57.601Z,1.37
2023-05-16T11:13:19.209Z,1.62
2023-05-16T11:14:41.493Z,1.50
2023-05-16T11:16:28.426Z,1.35
2023-05-16T11:17:51.287Z,1.26
2023-05-16T11:20:33.200Z,1.44
2023-05-16T11:23:21.447Z,1.39
2023-05-16T11:24:52.015Z,1.30
2023-05-16T11:26:15.047Z,1.60
2023-05-16T11:27:43.578Z,1.50
2023-05-16T11:29:05.700Z,1.84
2023-05-16T11:30:30.788Z,1.28
2023-05-16T11:31:52.889Z,1.30
2023-05-16T11:34:37.865Z,1.94
2023-05-16T12:07:07.343Z,2.59
2023-05-16T12:08:39.636Z,2.99
2023-05-16T12:10:08.812Z,2.03
2023-05-16T12:14:39.813Z,1.84
2023-05-16T12:16:02.116Z,1.74
2023-05-16T12:17:23.646Z,1.56
2023-05-16T12:18:46.636Z,1.50
2023-05-16T12:20:09.560Z,1.18
2023-05-16T12:21:35.022Z,1.58
2023-05-16T12:22:57.135Z,3.86
2023-05-16T12:24:19.126Z,3.78
2023-05-16T12:25:45.452Z,4.04
2023-05-16T12:27:08.339Z,3.14
2023-05-16T12:29:49.382Z,1.74
2023-05-16T12:31:30.161Z,1.55
2023-05-16T12:32:41.173Z,1.34
2023-05-16T12:34:03.231Z,1.32
2023-05-16T12:35:29.922Z,1.40
2023-05-16T12:36:52.861Z,1.20
2023-05-16T12:38:15.837Z,1.48
2023-05-16T12:39:38.408Z,1.43
2023-05-16T12:41:00.005Z,1.54
2023-05-16T12:42:22.222Z,1.50
2023-05-16T12:43:44.617Z,1.33
2023-05-16T12:46:21.509Z,1.37
2023-05-16T12:47:44.340Z,1.44
2023-05-16T12:49:05.675Z,1.31
2023-05-16T12:50:27.408Z,1.02
2023-05-16T12:51:54.627Z,1.26
2023-05-16T12:53:17.996Z,1.24
2023-05-16T12:54:39.909Z,2.35
2023-05-16T12:56:02.340Z,1.86
2023-05-16T12:57:24.376Z,1.28
2023-05-16T12:58:46.088Z,1.38
2023-05-16T13:00:09.422Z,1.51
2023-05-16T13:01:31.705Z,1.39
2023-05-16T13:02:52.954Z,1.31
2023-05-16T13:04:16.728Z,1.17
2023-05-16T13:05:38.635Z,1.59
2023-05-16T13:07:00.604Z,1.09
2023-05-16T13:08:38.581Z,1.64
2023-05-16T13:10:02.105Z,9.29
2023-05-16T13:11:24.765Z,2.41
2023-05-16T13:14:08.348Z,1.39
2023-05-16T13:15:31.122Z,1.39
2023-05-16T13:16:53.359Z,1.22
2023-05-16T13:18:16.490Z,1.89
2023-05-16T13:19:40.287Z,1.12
2023-05-16T13:21:02.449Z,1.27
2023-05-16T13:22:24.782Z,1.68
2023-05-16T13:23:47.410Z,1.33
2023-05-16T13:26:33.225Z,1.97
2023-05-16T13:27:55.541Z,1.59
2023-05-16T13:29:17.884Z,1.87
2023-05-16T13:32:02.708Z,1.53
2023-05-16T13:33:24.709Z,1.91
2023-05-16T13:34:46.341Z,1.43
2023-05-16T13:36:09.752Z,1.25
2023-05-16T13:37:31.989Z,1.47
2023-05-16T13:38:54.387Z,1.19
2023-05-16T13:40:17.277Z,1.47
2023-05-16T13:41:40.570Z,1.55
2023-05-16T13:44:26.165Z,1.46
2023-05-16T13:45:47.792Z,1.20
2023-05-16T13:47:10.215Z,1.08
2023-05-16T13:48:31.849Z,1.26
2023-05-16T13:49:53.592Z,1.54
2023-05-16T13:51:15.110Z,1.51
2023-05-16T13:52:37.835Z,1.58
2023-05-16T13:55:21.950Z,2.07
2023-05-16T13:56:44.568Z,1.44
2023-05-16T13:58:07.178Z,1.36
2023-05-16T13:59:46.695Z,1.60
2023-05-16T14:00:53.517Z,1.87
2023-05-16T14:02:16.276Z,1.32
2023-05-16T14:03:38.713Z,1.19
2023-05-16T14:05:00.938Z,1.57
2023-05-16T14:08:49.612Z,2.43
2023-05-16T14:10:21.042Z,1.53
2023-05-16T14:11:43.308Z,1.43
2023-05-16T14:13:05.819Z,1.43
2023-05-16T14:14:27.933Z,2.07
2023-05-16T14:15:51.693Z,2.31
2023-05-16T14:17:14.749Z,2.72
2023-05-16T14:18:36.504Z,2.31
2023-05-16T14:19:58.204Z,1.47
2023-05-16T14:21:20.593Z,2.02
2023-05-16T14:22:42.466Z,2.28
2023-05-16T14:24:04.320Z,4.57
2023-05-16T14:25:26.337Z,1.94
2023-05-16T14:26:48.178Z,1.43
2023-05-16T14:28:09.833Z,1.54
2023-05-16T14:29:33.173Z,1.49
2023-05-16T14:30:55.374Z,1.48
2023-05-16T14:32:17.203Z,1.40
2023-05-16T14:33:38.946Z,2.14
2023-05-16T14:35:00.396Z,1.63
2023-05-16T14:36:22.166Z,1.41
2023-05-16T14:37:43.691Z,1.16
2023-05-16T14:39:05.626Z,1.56
2023-05-16T14:40:28.012Z,1.31
2023-05-16T14:41:49.576Z,1.46
2023-05-16T14:43:12.606Z,1.11
2023-05-16T14:44:38.133Z,1.55
2023-05-16T14:46:00.696Z,1.43
2023-05-16T14:47:22.602Z,2.46
2023-05-16T14:48:44.442Z,2.02
2023-05-16T14:50:08.901Z,1.43
2023-05-16T14:52:42.561Z,3.11
2023-05-16T14:54:07.054Z,2.67
2023-05-16T14:55:29.120Z,1.43
2023-05-16T14:58:13.355Z,1.21
2023-05-16T14:59:35.072Z,2.10
2023-05-16T15:00:57.305Z,1.52
2023-05-16T15:02:19.153Z,1.30
2023-05-16T15:03:54.674Z,1.52
2023-05-16T15:05:07.710Z,1.31
2023-05-16T15:06:29.617Z,1.33
2023-05-16T15:07:51.524Z,1.67
2023-05-16T15:09:13.648Z,1.98
2023-05-16T15:10:35.847Z,1.54
2023-05-16T15:11:59.468Z,1.30
2023-05-16T15:13:21.989Z,1.69
2023-05-16T15:14:44.576Z,1.37
2023-05-16T15:16:08.589Z,1.36
2023-05-16T15:17:30.382Z,1.23
2023-05-16T15:18:52.672Z,2.09
2023-05-16T15:21:36.941Z,1.51
2023-05-16T15:22:58.531Z,1.52
2023-05-16T15:24:20.593Z,1.18
2023-05-16T15:25:43.037Z,1.25
2023-05-16T15:27:05.846Z,1.36
2023-05-16T15:28:28.057Z,1.29
2023-05-16T15:29:49.720Z,1.70
2023-05-16T15:31:13.127Z,2.06
2023-05-16T15:32:37.790Z,1.62
2023-05-16T15:34:01.323Z,2.61
2023-05-16T15:35:23.201Z,2.07
2023-05-16T15:36:45.001Z,3.36
2023-05-16T15:38:06.685Z,2.94
2023-05-16T15:39:29.085Z,2.58
2023-05-16T15:41:01.543Z,2.33
2023-05-16T15:42:16.551Z,1.77
2023-05-16T15:43:38.842Z,1.60
2023-05-16T15:45:00.917Z,1.54
2023-05-16T15:46:22.612Z,1.73
2023-05-16T15:47:44.736Z,1.86
2023-05-16T15:49:07.246Z,3.90
2023-05-16T15:50:29.181Z,2.48
2023-05-16T15:51:50.892Z,2.27
2023-05-16T15:53:13.621Z,1.74
2023-05-16T15:54:35.920Z,1.90
2023-05-16T15:57:21.102Z,2.39
2023-05-16T15:58:42.762Z,3.75
2023-05-16T16:00:05.175Z,1.83
2023-05-16T16:04:00.251Z,2.32
2023-05-16T16:05:23.830Z,1.74
2023-05-16T16:06:45.957Z,2.54
2023-05-16T16:08:07.970Z,1.76
2023-05-16T16:09:30.897Z,2.41
2023-05-16T16:10:52.688Z,2.56
2023-05-16T16:12:14.920Z,3.05
2023-05-16T16:13:36.938Z,1.83
2023-05-16T16:14:59.138Z,1.49
2023-05-16T16:16:21.627Z,1.62
2023-05-16T16:17:44.921Z,1.00
2023-05-16T16:19:08.352Z,2.13
2023-05-16T16:20:31.454Z,1.68
2023-05-16T16:21:53.708Z,1.74
2023-05-16T16:23:16.311Z,2.09
2023-05-16T16:24:39.832Z,1.35
2023-05-16T16:26:02.954Z,1.68
2023-05-16T16:27:25.688Z,1.49
2023-05-16T16:28:47.246Z,1.13
2023-05-16T16:30:10.051Z,1.30
2023-05-16T16:31:32.471Z,1.18
2023-05-16T16:32:54.377Z,1.53
2023-05-16T16:34:16.165Z,1.65
2023-05-16T16:35:37.667Z,4.10
2023-05-16T16:36:59.803Z,1.49
2023-05-16T16:38:23.415Z,1.30
2023-05-16T16:39:47.041Z,1.29
2023-05-16T16:41:09.240Z,1.23
2023-05-16T16:42:30.781Z,1.21
2023-05-16T16:43:54.045Z,2.08
2023-05-16T16:45:16.634Z,2.11
2023-05-16T16:46:38.059Z,2.84
2023-05-16T16:48:00.534Z,2.13
2023-05-16T16:49:23.067Z,2.15
2023-05-16T16:50:46.551Z,3.47
2023-05-16T16:52:08.372Z,3.82
2023-05-16T16:53:30.596Z,3.55
2023-05-16T16:54:52.174Z,2.89
2023-05-16T16:56:13.977Z,3.62
2023-05-16T16:57:36.099Z,2.58
2023-05-16T16:58:57.629Z,2.04
2023-05-16T17:00:21.651Z,1.86
2023-05-16T17:13:25.847Z,1.46
2023-05-16T17:15:58.410Z,1.77
2023-05-16T17:17:21.280Z,1.66
2023-05-16T17:18:43.473Z,2.01
2023-05-16T17:20:09.785Z,2.73
2023-05-16T17:21:31.542Z,1.76
2023-05-16T17:22:53.875Z,2.06
2023-05-16T17:24:17.198Z,1.53
2023-05-16T17:25:38.923Z,2.52
2023-05-16T17:27:00.638Z,1.85
2023-05-16T17:28:22.714Z,5.06
2023-05-16T17:29:44.272Z,2.33
2023-05-16T17:31:06.344Z,1.74
2023-05-16T17:32:28.050Z,2.12
2023-05-16T17:33:50.058Z,2.07
2023-05-16T17:35:12.481Z,2.42
2023-05-16T17:36:34.180Z,2.18
2023-05-16T17:37:56.245Z,1.92
2023-05-16T17:39:19.510Z,2.32
2023-05-16T17:40:40.982Z,1.66
2023-05-16T17:42:02.425Z,1.71
2023-05-16T17:43:24.103Z,1.66
2023-05-16T17:44:46.140Z,2.01
2023-05-16T17:46:09.092Z,1.47
2023-05-16T17:47:31.627Z,2.45
2023-05-16T17:48:54.901Z,1.96
2023-05-16T17:50:17.222Z,1.52
2023-05-16T17:51:45.562Z,2.22
2023-05-16T17:53:07.938Z,2.66
2023-05-16T17:54:29.974Z,1.79
2023-05-16T17:55:52.387Z,2.07
2023-05-16T17:57:13.799Z,2.70
2023-05-16T17:58:35.774Z,2.69
2023-05-16T17:59:57.598Z,3.01
2023-05-16T18:01:20.035Z,2.57
2023-05-16T18:02:41.680Z,2.53
2023-05-16T18:05:23.524Z,1.99
2023-05-16T18:08:30.012Z,3.47
2023-05-16T18:09:59.366Z,3.43
2023-05-16T18:11:22.429Z,3.58
2023-05-16T18:12:45.301Z,3.83
2023-05-16T18:14:07.333Z,2.90
2023-05-16T18:15:29.125Z,3.99
2023-05-16T18:16:51.557Z,3.42
2023-05-16T18:18:13.796Z,3.72
2023-05-16T18:19:36.254Z,4.51
2023-05-16T18:20:58.277Z,3.03
2023-05-16T18:22:19.545Z,4.59
2023-05-16T18:23:41.886Z,3.78
2023-05-16T18:25:05.507Z,3.50
2023-05-16T18:26:28.219Z,4.43
2023-05-16T18:27:51.190Z,3.27
2023-05-16T18:29:12.985Z,4.66
2023-05-16T18:30:37.902Z,4.49
2023-05-16T18:31:59.419Z,3.96
2023-05-16T18:33:22.840Z,3.88
2023-05-16T18:34:44.338Z,3.42
2023-05-16T18:36:06.411Z,3.44
2023-05-16T18:37:28.316Z,3.21
2023-05-16T18:38:51.449Z,2.64
2023-05-16T18:40:14.276Z,2.38
2023-05-16T18:41:39.273Z,2.77
2023-05-16T18:43:01.622Z,2.68
2023-05-16T18:44:23.123Z,2.56
2023-05-16T18:45:45.189Z,2.29
2023-05-16T18:47:07.461Z,2.06
2023-05-16T18:48:29.660Z,2.60
2023-05-16T18:49:51.539Z,2.17
2023-05-16T18:51:12.831Z,2.46
2023-05-16T18:52:34.834Z,2.91
2023-05-16T18:53:57.549Z,2.27
2023-05-16T18:55:19.880Z,2.16
2023-05-16T18:56:43.212Z,2.34
2023-05-16T18:58:05.461Z,3.24
2023-05-16T18:59:28.262Z,2.24
2023-05-16T19:00:49.886Z,2.43
2023-05-16T19:02:22.384Z,2.07
2023-05-16T19:03:42.759Z,2.31
2023-05-16T19:05:05.873Z,1.96
2023-05-16T19:06:28.116Z,2.81
2023-05-16T19:07:50.076Z,2.34
2023-05-16T19:09:12.001Z,2.35
2023-05-16T19:10:33.718Z,2.36
2023-05-16T19:11:56.359Z,2.92
2023-05-16T19:13:18.677Z,2.08
2023-05-16T19:15:50.024Z,2.08
2023-05-16T19:17:12.065Z,2.88
2023-05-16T19:18:34.220Z,3.16
2023-05-16T19:19:56.195Z,3.52
2023-05-16T19:21:18.668Z,3.00
2023-05-16T19:22:40.670Z,2.64
2023-05-16T19:24:02.343Z,2.89
2023-05-16T19:25:24.080Z,2.90
2023-05-16T19:26:47.688Z,2.73
2023-05-16T19:28:09.944Z,2.81
2023-05-16T19:29:31.147Z,2.08
2023-05-16T19:30:53.680Z,3.10
2023-05-16T19:32:17.055Z,3.19
2023-05-16T19:33:38.916Z,3.06
2023-05-16T19:35:01.558Z,5.44
2023-05-16T19:36:23.551Z,3.88
2023-05-16T19:37:46.042Z,4.01
2023-05-16T19:40:28.683Z,2.57
2023-05-16T19:41:52.243Z,2.87
2023-05-16T19:43:15.871Z,2.87
2023-05-16T19:44:38.471Z,2.16
2023-05-16T19:45:59.953Z,2.64
2023-05-16T19:47:22.388Z,2.16
2023-05-16T19:48:43.867Z,2.61
2023-05-16T19:50:11.061Z,2.49
2023-05-16T19:51:41.413Z,2.36
2023-05-16T19:52:57.213Z,2.63
2023-05-16T19:54:19.189Z,2.24
2023-05-16T19:55:43.114Z,2.36
2023-05-16T19:57:04.812Z,2.54
2023-05-16T19:58:27.108Z,2.54
2023-05-16T19:59:48.265Z,4.03
2023-05-16T20:01:10.745Z,2.87
2023-05-16T20:02:33.833Z,2.41
2023-05-16T20:03:57.677Z,2.46
2023-05-16T20:05:19.207Z,2.29
2023-05-16T20:06:42.541Z,2.26
2023-05-16T20:08:04.649Z,2.36
2023-05-16T20:09:27.126Z,3.27
2023-05-16T20:12:14.272Z,3.28
2023-05-16T20:13:36.132Z,4.76
2023-05-16T20:14:59.735Z,2.89
2023-05-16T20:16:21.008Z,2.96
2023-05-16T20:17:42.306Z,2.72
2023-05-16T20:19:05.312Z,2.33
2023-05-16T20:20:27.392Z,2.49
2023-05-16T20:21:48.944Z,2.38
2023-05-16T20:23:14.614Z,2.34
2023-05-16T20:24:36.092Z,2.32
2023-05-16T20:25:59.216Z,2.19
2023-05-16T20:27:21.313Z,2.44
2023-05-16T20:28:43.386Z,2.39
2023-05-16T20:30:07.363Z,2.88
2023-05-16T20:31:30.174Z,2.63
2023-05-16T20:32:52.768Z,2.74
2023-05-16T20:34:15.529Z,2.60
2023-05-16T20:35:39.827Z,2.60
2023-05-16T20:37:03.254Z,3.19
2023-05-16T20:38:26.533Z,2.68